sensor_id;sensor_type;location;lat;lon;timestamp;temperature;humidity
9849;DHT22;4963;51.444;6.528;2023-06-14T00:00:53;22.30;63.10
9849;DHT22;4963;51.444;6.528;2023-06-14T00:03:22;22.20;63.10
9849;DHT22;4963;51.444;6.528;2023-06-14T00:05:51;22.20;63.10
9849;DHT22;4963;51.444;6.528;2023-06-14T00:08:18;22.10;63.10
9849;DHT22;4963;51.444;6.528;2023-06-14T00:10:46;22.00;63.00
9849;DHT22;4963;51.444;6.528;2023-06-14T00:13:13;21.90;63.60
9849;DHT22;4963;51.444;6.528;2023-06-14T00:15:40;21.90;63.50
9849;DHT22;4963;51.444;6.528;2023-06-14T00:18:08;21.90;63.20
9849;DHT22;4963;51.444;6.528;2023-06-14T00:20:37;21.90;63.40
9849;DHT22;4963;51.444;6.528;2023-06-14T00:23:06;21.90;63.50
9849;DHT22;4963;51.444;6.528;2023-06-14T00:25:33;21.80;64.30
9849;DHT22;4963;51.444;6.528;2023-06-14T00:27:59;21.80;63.90
9849;DHT22;4963;51.444;6.528;2023-06-14T00:30:26;21.80;64.20
9849;DHT22;4963;51.444;6.528;2023-06-14T00:32:56;21.80;64.00
9849;DHT22;4963;51.444;6.528;2023-06-14T00:35:22;21.80;64.20
9849;DHT22;4963;51.444;6.528;2023-06-14T00:37:49;21.70;64.10
9849;DHT22;4963;51.444;6.528;2023-06-14T00:40:17;21.70;64.30
9849;DHT22;4963;51.444;6.528;2023-06-14T00:42:44;21.60;64.70
9849;DHT22;4963;51.444;6.528;2023-06-14T00:45:12;21.60;64.60
9849;DHT22;4963;51.444;6.528;2023-06-14T00:47:41;21.60;64.80
9849;DHT22;4963;51.444;6.528;2023-06-14T00:50:09;21.50;64.80
9849;DHT22;4963;51.444;6.528;2023-06-14T00:52:36;21.50;65.40
9849;DHT22;4963;51.444;6.528;2023-06-14T00:55:04;21.50;65.30
9849;DHT22;4963;51.444;6.528;2023-06-14T00:57:32;21.40;65.50
9849;DHT22;4963;51.444;6.528;2023-06-14T01:00:03;21.40;65.40
9849;DHT22;4963;51.444;6.528;2023-06-14T01:02:34;21.30;65.70
9849;DHT22;4963;51.444;6.528;2023-06-14T01:05:02;21.20;65.20
9849;DHT22;4963;51.444;6.528;2023-06-14T01:07:35;21.30;65.90
9849;DHT22;4963;51.444;6.528;2023-06-14T01:10:20;21.20;65.80
9849;DHT22;4963;51.444;6.528;2023-06-14T01:12:55;21.20;65.90
9849;DHT22;4963;51.444;6.528;2023-06-14T01:15:24;21.20;66.80
9849;DHT22;4963;51.444;6.528;2023-06-14T01:17:51;21.10;66.80
9849;DHT22;4963;51.444;6.528;2023-06-14T01:20:22;21.10;66.20
9849;DHT22;4963;51.444;6.528;2023-06-14T01:22:52;21.10;66.70
9849;DHT22;4963;51.444;6.528;2023-06-14T01:25:19;21.00;66.10
9849;DHT22;4963;51.444;6.528;2023-06-14T01:27:49;21.00;66.00
9849;DHT22;4963;51.444;6.528;2023-06-14T01:30:17;21.00;66.60
9849;DHT22;4963;51.444;6.528;2023-06-14T01:32:44;20.90;66.20
9849;DHT22;4963;51.444;6.528;2023-06-14T01:35:13;20.90;66.80
9849;DHT22;4963;51.444;6.528;2023-06-14T01:37:40;20.90;67.30
9849;DHT22;4963;51.444;6.528;2023-06-14T01:40:10;20.90;67.30
9849;DHT22;4963;51.444;6.528;2023-06-14T01:42:38;20.80;67.80
9849;DHT22;4963;51.444;6.528;2023-06-14T01:45:07;20.80;68.00
9849;DHT22;4963;51.444;6.528;2023-06-14T01:47:34;20.70;66.90
9849;DHT22;4963;51.444;6.528;2023-06-14T01:50:02;20.70;67.40
9849;DHT22;4963;51.444;6.528;2023-06-14T01:52:29;20.70;67.50
9849;DHT22;4963;51.444;6.528;2023-06-14T01:54:56;20.60;66.90
9849;DHT22;4963;51.444;6.528;2023-06-14T01:57:25;20.70;66.80
9849;DHT22;4963;51.444;6.528;2023-06-14T01:59:52;20.60;66.90
9849;DHT22;4963;51.444;6.528;2023-06-14T02:02:19;20.60;66.90
9849;DHT22;4963;51.444;6.528;2023-06-14T02:04:46;20.60;67.30
9849;DHT22;4963;51.444;6.528;2023-06-14T02:07:13;20.60;67.10
9849;DHT22;4963;51.444;6.528;2023-06-14T02:09:40;20.60;66.90
9849;DHT22;4963;51.444;6.528;2023-06-14T02:12:08;20.60;66.50
9849;DHT22;4963;51.444;6.528;2023-06-14T02:14:37;20.60;66.90
9849;DHT22;4963;51.444;6.528;2023-06-14T02:17:04;20.60;66.80
9849;DHT22;4963;51.444;6.528;2023-06-14T02:19:32;20.50;66.30
9849;DHT22;4963;51.444;6.528;2023-06-14T02:21:58;20.40;67.00
9849;DHT22;4963;51.444;6.528;2023-06-14T02:24:25;20.40;67.90
9849;DHT22;4963;51.444;6.528;2023-06-14T02:26:52;20.30;68.60
9849;DHT22;4963;51.444;6.528;2023-06-14T02:29:19;20.30;68.30
9849;DHT22;4963;51.444;6.528;2023-06-14T02:31:47;20.30;68.50
9849;DHT22;4963;51.444;6.528;2023-06-14T02:34:15;20.30;69.00
9849;DHT22;4963;51.444;6.528;2023-06-14T02:36:43;20.20;69.40
9849;DHT22;4963;51.444;6.528;2023-06-14T02:39:10;20.20;69.10
9849;DHT22;4963;51.444;6.528;2023-06-14T02:41:37;20.20;69.20
9849;DHT22;4963;51.444;6.528;2023-06-14T02:44:04;20.10;68.90
9849;DHT22;4963;51.444;6.528;2023-06-14T02:46:31;20.10;69.40
9849;DHT22;4963;51.444;6.528;2023-06-14T02:48:59;20.10;69.30
9849;DHT22;4963;51.444;6.528;2023-06-14T02:51:26;20.00;69.40
9849;DHT22;4963;51.444;6.528;2023-06-14T02:53:53;20.00;69.80
9849;DHT22;4963;51.444;6.528;2023-06-14T02:56:20;20.00;69.20
9849;DHT22;4963;51.444;6.528;2023-06-14T02:58:48;19.90;69.60
9849;DHT22;4963;51.444;6.528;2023-06-14T03:01:16;19.90;70.00
9849;DHT22;4963;51.444;6.528;2023-06-14T03:03:43;19.90;70.50
9849;DHT22;4963;51.444;6.528;2023-06-14T03:06:11;19.90;70.40
9849;DHT22;4963;51.444;6.528;2023-06-14T03:08:39;19.80;70.40
9849;DHT22;4963;51.444;6.528;2023-06-14T03:11:07;19.80;70.60
9849;DHT22;4963;51.444;6.528;2023-06-14T03:13:34;19.80;70.60
9849;DHT22;4963;51.444;6.528;2023-06-14T03:16:01;19.80;70.60
9849;DHT22;4963;51.444;6.528;2023-06-14T03:18:29;19.80;70.90
9849;DHT22;4963;51.444;6.528;2023-06-14T03:20:56;19.70;71.20
9849;DHT22;4963;51.444;6.528;2023-06-14T03:23:25;19.80;70.80
9849;DHT22;4963;51.444;6.528;2023-06-14T03:25:52;19.80;71.00
9849;DHT22;4963;51.444;6.528;2023-06-14T03:28:19;19.80;70.30
9849;DHT22;4963;51.444;6.528;2023-06-14T03:30:46;19.70;71.10
9849;DHT22;4963;51.444;6.528;2023-06-14T03:33:13;19.70;71.30
9849;DHT22;4963;51.444;6.528;2023-06-14T03:35:41;19.70;70.70
9849;DHT22;4963;51.444;6.528;2023-06-14T03:38:07;19.70;70.80
9849;DHT22;4963;51.444;6.528;2023-06-14T03:40:36;19.60;71.40
9849;DHT22;4963;51.444;6.528;2023-06-14T03:43:02;19.60;71.60
9849;DHT22;4963;51.444;6.528;2023-06-14T03:45:29;19.60;71.60
9849;DHT22;4963;51.444;6.528;2023-06-14T03:47:56;19.60;72.00
9849;DHT22;4963;51.444;6.528;2023-06-14T03:50:23;19.50;71.60
9849;DHT22;4963;51.444;6.528;2023-06-14T03:52:50;19.50;71.60
9849;DHT22;4963;51.444;6.528;2023-06-14T03:55:18;19.50;72.00
9849;DHT22;4963;51.444;6.528;2023-06-14T03:57:46;19.50;72.00
9849;DHT22;4963;51.444;6.528;2023-06-14T04:00:13;19.50;72.30
9849;DHT22;4963;51.444;6.528;2023-06-14T04:02:40;19.50;72.60
9849;DHT22;4963;51.444;6.528;2023-06-14T04:05:07;19.50;72.70
9849;DHT22;4963;51.444;6.528;2023-06-14T04:07:34;19.50;73.00
9849;DHT22;4963;51.444;6.528;2023-06-14T04:10:06;19.50;73.70
9849;DHT22;4963;51.444;6.528;2023-06-14T04:12:34;19.50;74.10
9849;DHT22;4963;51.444;6.528;2023-06-14T04:15:02;19.40;74.50
9849;DHT22;4963;51.444;6.528;2023-06-14T04:17:31;19.40;75.00
9849;DHT22;4963;51.444;6.528;2023-06-14T04:19:59;19.50;75.80
9849;DHT22;4963;51.444;6.528;2023-06-14T04:22:26;19.50;75.80
9849;DHT22;4963;51.444;6.528;2023-06-14T04:24:54;19.60;77.20
9849;DHT22;4963;51.444;6.528;2023-06-14T04:27:22;19.70;76.70
9849;DHT22;4963;51.444;6.528;2023-06-14T04:29:51;19.70;77.00
9849;DHT22;4963;51.444;6.528;2023-06-14T04:32:24;19.80;76.90
9849;DHT22;4963;51.444;6.528;2023-06-14T04:34:52;19.80;77.40
9849;DHT22;4963;51.444;6.528;2023-06-14T04:37:20;19.80;77.60
9849;DHT22;4963;51.444;6.528;2023-06-14T04:39:47;19.80;77.90
9849;DHT22;4963;51.444;6.528;2023-06-14T04:42:14;19.80;77.50
9849;DHT22;4963;51.444;6.528;2023-06-14T04:44:41;19.90;77.80
9849;DHT22;4963;51.444;6.528;2023-06-14T04:47:09;19.90;76.90
9849;DHT22;4963;51.444;6.528;2023-06-14T04:49:39;19.90;77.70
9849;DHT22;4963;51.444;6.528;2023-06-14T04:52:07;20.00;77.10
9849;DHT22;4963;51.444;6.528;2023-06-14T04:54:35;20.00;77.40
9849;DHT22;4963;51.444;6.528;2023-06-14T04:57:04;20.10;77.30
9849;DHT22;4963;51.444;6.528;2023-06-14T04:59:31;20.10;76.80
9849;DHT22;4963;51.444;6.528;2023-06-14T05:01:59;20.10;77.20
9849;DHT22;4963;51.444;6.528;2023-06-14T05:04:26;20.00;77.30
9849;DHT22;4963;51.444;6.528;2023-06-14T05:06:54;20.10;77.90
9849;DHT22;4963;51.444;6.528;2023-06-14T05:09:22;20.10;79.00
9849;DHT22;4963;51.444;6.528;2023-06-14T05:11:49;20.20;77.20
9849;DHT22;4963;51.444;6.528;2023-06-14T05:14:16;20.20;75.50
9849;DHT22;4963;51.444;6.528;2023-06-14T05:16:43;20.20;75.30
9849;DHT22;4963;51.444;6.528;2023-06-14T05:19:09;20.30;75.20
9849;DHT22;4963;51.444;6.528;2023-06-14T05:21:36;20.40;74.20
9849;DHT22;4963;51.444;6.528;2023-06-14T05:24:05;20.50;74.00
9849;DHT22;4963;51.444;6.528;2023-06-14T05:26:33;20.60;73.00
9849;DHT22;4963;51.444;6.528;2023-06-14T05:29:00;20.70;72.90
9849;DHT22;4963;51.444;6.528;2023-06-14T05:31:28;20.90;73.00
9849;DHT22;4963;51.444;6.528;2023-06-14T05:33:55;20.90;71.80
9849;DHT22;4963;51.444;6.528;2023-06-14T05:36:22;21.00;71.60
9849;DHT22;4963;51.444;6.528;2023-06-14T05:38:49;21.10;71.10
9849;DHT22;4963;51.444;6.528;2023-06-14T05:41:17;21.30;71.30
9849;DHT22;4963;51.444;6.528;2023-06-14T05:43:46;21.40;71.00
9849;DHT22;4963;51.444;6.528;2023-06-14T05:46:13;21.70;70.70
9849;DHT22;4963;51.444;6.528;2023-06-14T05:48:40;21.80;69.80
9849;DHT22;4963;51.444;6.528;2023-06-14T05:51:07;21.90;69.70
9849;DHT22;4963;51.444;6.528;2023-06-14T05:53:35;22.30;69.90
9849;DHT22;4963;51.444;6.528;2023-06-14T05:56:02;22.60;68.90
9849;DHT22;4963;51.444;6.528;2023-06-14T05:58:30;22.80;67.80
9849;DHT22;4963;51.444;6.528;2023-06-14T06:00:57;23.00;67.70
9849;DHT22;4963;51.444;6.528;2023-06-14T06:03:24;23.20;67.50
9849;DHT22;4963;51.444;6.528;2023-06-14T06:05:50;23.30;66.50
9849;DHT22;4963;51.444;6.528;2023-06-14T06:08:17;23.40;66.40
9849;DHT22;4963;51.444;6.528;2023-06-14T06:10:44;23.40;67.00
9849;DHT22;4963;51.444;6.528;2023-06-14T06:13:11;23.70;66.10
9849;DHT22;4963;51.444;6.528;2023-06-14T06:15:39;23.80;64.60
9849;DHT22;4963;51.444;6.528;2023-06-14T06:18:06;23.90;64.80
9849;DHT22;4963;51.444;6.528;2023-06-14T06:20:33;24.10;64.70
9849;DHT22;4963;51.444;6.528;2023-06-14T06:23:01;24.20;63.90
9849;DHT22;4963;51.444;6.528;2023-06-14T06:25:28;24.30;64.60
9849;DHT22;4963;51.444;6.528;2023-06-14T06:27:57;24.50;63.00
9849;DHT22;4963;51.444;6.528;2023-06-14T06:30:24;24.40;63.70
9849;DHT22;4963;51.444;6.528;2023-06-14T06:32:52;24.50;63.10
9849;DHT22;4963;51.444;6.528;2023-06-14T06:35:21;24.60;62.80
9849;DHT22;4963;51.444;6.528;2023-06-14T06:37:47;24.70;63.30
9849;DHT22;4963;51.444;6.528;2023-06-14T06:40:14;25.00;63.10
9849;DHT22;4963;51.444;6.528;2023-06-14T06:42:41;25.10;62.40
9849;DHT22;4963;51.444;6.528;2023-06-14T06:45:09;25.30;61.30
9849;DHT22;4963;51.444;6.528;2023-06-14T06:47:36;25.00;60.60
9849;DHT22;4963;51.444;6.528;2023-06-14T06:50:05;24.80;60.60
9849;DHT22;4963;51.444;6.528;2023-06-14T06:52:33;24.90;60.80
9849;DHT22;4963;51.444;6.528;2023-06-14T06:54:59;24.90;60.90
9849;DHT22;4963;51.444;6.528;2023-06-14T06:57:28;24.70;61.20
9849;DHT22;4963;51.444;6.528;2023-06-14T06:59:55;24.90;61.40
9849;DHT22;4963;51.444;6.528;2023-06-14T07:02:22;24.90;60.80
9849;DHT22;4963;51.444;6.528;2023-06-14T07:04:49;25.00;60.00
9849;DHT22;4963;51.444;6.528;2023-06-14T07:07:17;25.00;59.80
9849;DHT22;4963;51.444;6.528;2023-06-14T07:09:44;25.10;60.40
9849;DHT22;4963;51.444;6.528;2023-06-14T07:12:11;25.10;59.90
9849;DHT22;4963;51.444;6.528;2023-06-14T07:14:38;25.10;60.10
9849;DHT22;4963;51.444;6.528;2023-06-14T07:17:05;25.30;60.40
9849;DHT22;4963;51.444;6.528;2023-06-14T07:19:32;25.30;59.00
9849;DHT22;4963;51.444;6.528;2023-06-14T07:21:59;25.40;57.80
9849;DHT22;4963;51.444;6.528;2023-06-14T07:24:27;25.50;58.00
9849;DHT22;4963;51.444;6.528;2023-06-14T07:26:54;25.60;57.20
9849;DHT22;4963;51.444;6.528;2023-06-14T07:29:22;25.60;56.40
9849;DHT22;4963;51.444;6.528;2023-06-14T07:31:48;25.80;57.00
9849;DHT22;4963;51.444;6.528;2023-06-14T07:34:15;25.90;55.40
9849;DHT22;4963;51.444;6.528;2023-06-14T07:36:43;25.60;56.10
9849;DHT22;4963;51.444;6.528;2023-06-14T07:39:10;25.40;55.80
9849;DHT22;4963;51.444;6.528;2023-06-14T07:41:38;25.40;55.40
9849;DHT22;4963;51.444;6.528;2023-06-14T07:44:05;25.30;55.80
9849;DHT22;4963;51.444;6.528;2023-06-14T07:46:32;25.10;55.50
9849;DHT22;4963;51.444;6.528;2023-06-14T07:49:00;24.90;55.30
9849;DHT22;4963;51.444;6.528;2023-06-14T07:51:27;25.00;55.90
9849;DHT22;4963;51.444;6.528;2023-06-14T07:53:53;25.10;55.80
9849;DHT22;4963;51.444;6.528;2023-06-14T07:56:20;25.40;55.90
9849;DHT22;4963;51.444;6.528;2023-06-14T07:58:48;25.50;55.50
9849;DHT22;4963;51.444;6.528;2023-06-14T08:01:15;25.70;55.90
9849;DHT22;4963;51.444;6.528;2023-06-14T08:03:42;25.60;53.90
9849;DHT22;4963;51.444;6.528;2023-06-14T08:06:09;25.60;54.50
9849;DHT22;4963;51.444;6.528;2023-06-14T08:08:36;25.50;53.80
9849;DHT22;4963;51.444;6.528;2023-06-14T08:11:03;25.30;54.20
9849;DHT22;4963;51.444;6.528;2023-06-14T08:13:30;25.40;54.00
9849;DHT22;4963;51.444;6.528;2023-06-14T08:15:58;25.60;52.90
9849;DHT22;4963;51.444;6.528;2023-06-14T08:18:26;25.40;53.50
9849;DHT22;4963;51.444;6.528;2023-06-14T08:20:53;25.40;53.60
9849;DHT22;4963;51.444;6.528;2023-06-14T08:23:20;25.60;53.50
9849;DHT22;4963;51.444;6.528;2023-06-14T08:25:47;25.80;53.40
9849;DHT22;4963;51.444;6.528;2023-06-14T08:28:14;25.90;54.00
9849;DHT22;4963;51.444;6.528;2023-06-14T08:30:42;26.00;53.70
9849;DHT22;4963;51.444;6.528;2023-06-14T08:33:10;26.00;54.10
9849;DHT22;4963;51.444;6.528;2023-06-14T08:35:37;26.00;53.60
9849;DHT22;4963;51.444;6.528;2023-06-14T08:38:05;25.70;54.00
9849;DHT22;4963;51.444;6.528;2023-06-14T08:40:36;25.40;54.40
9849;DHT22;4963;51.444;6.528;2023-06-14T08:43:03;25.40;55.40
9849;DHT22;4963;51.444;6.528;2023-06-14T08:45:31;25.40;55.20
9849;DHT22;4963;51.444;6.528;2023-06-14T08:47:58;25.40;55.00
9849;DHT22;4963;51.444;6.528;2023-06-14T08:50:28;25.40;54.30
9849;DHT22;4963;51.444;6.528;2023-06-14T08:52:59;25.10;54.60
9849;DHT22;4963;51.444;6.528;2023-06-14T08:55:28;24.90;55.40
9849;DHT22;4963;51.444;6.528;2023-06-14T08:57:56;24.90;54.90
9849;DHT22;4963;51.444;6.528;2023-06-14T09:00:24;25.10;55.70
9849;DHT22;4963;51.444;6.528;2023-06-14T09:02:52;25.30;56.10
9849;DHT22;4963;51.444;6.528;2023-06-14T09:05:23;25.30;55.80
9849;DHT22;4963;51.444;6.528;2023-06-14T09:07:52;25.20;56.40
9849;DHT22;4963;51.444;6.528;2023-06-14T09:10:21;25.00;56.30
9849;DHT22;4963;51.444;6.528;2023-06-14T09:12:48;25.10;57.50
9849;DHT22;4963;51.444;6.528;2023-06-14T09:15:14;25.30;57.30
9849;DHT22;4963;51.444;6.528;2023-06-14T09:17:42;25.40;57.20
9849;DHT22;4963;51.444;6.528;2023-06-14T09:20:10;25.40;54.30
9849;DHT22;4963;51.444;6.528;2023-06-14T09:22:39;24.90;54.60
9849;DHT22;4963;51.444;6.528;2023-06-14T09:25:09;24.70;55.30
9849;DHT22;4963;51.444;6.528;2023-06-14T09:27:37;24.80;56.40
9849;DHT22;4963;51.444;6.528;2023-06-14T09:30:06;24.90;55.60
9849;DHT22;4963;51.444;6.528;2023-06-14T09:32:36;25.10;56.60
9849;DHT22;4963;51.444;6.528;2023-06-14T09:35:05;25.20;57.30
9849;DHT22;4963;51.444;6.528;2023-06-14T09:37:32;25.20;56.30
9849;DHT22;4963;51.444;6.528;2023-06-14T09:40:00;25.20;56.80
9849;DHT22;4963;51.444;6.528;2023-06-14T09:42:28;25.10;56.70
9849;DHT22;4963;51.444;6.528;2023-06-14T09:44:56;25.00;56.00
9849;DHT22;4963;51.444;6.528;2023-06-14T09:47:23;24.80;56.40
9849;DHT22;4963;51.444;6.528;2023-06-14T09:49:51;24.70;56.50
9849;DHT22;4963;51.444;6.528;2023-06-14T09:52:20;25.10;57.10
9849;DHT22;4963;51.444;6.528;2023-06-14T09:54:48;25.40;56.60
9849;DHT22;4963;51.444;6.528;2023-06-14T09:57:17;25.40;56.20
9849;DHT22;4963;51.444;6.528;2023-06-14T09:59:49;25.10;55.80
9849;DHT22;4963;51.444;6.528;2023-06-14T10:02:24;24.70;55.90
9849;DHT22;4963;51.444;6.528;2023-06-14T10:04:58;24.40;56.00
9849;DHT22;4963;51.444;6.528;2023-06-14T10:07:26;24.30;56.10
9849;DHT22;4963;51.444;6.528;2023-06-14T10:09:56;24.10;56.50
9849;DHT22;4963;51.444;6.528;2023-06-14T10:12:23;24.30;57.50
9849;DHT22;4963;51.444;6.528;2023-06-14T10:14:51;24.60;56.60
9849;DHT22;4963;51.444;6.528;2023-06-14T10:17:24;24.80;56.30
9849;DHT22;4963;51.444;6.528;2023-06-14T10:19:57;24.90;56.60
9849;DHT22;4963;51.444;6.528;2023-06-14T10:22:30;25.10;56.90
9849;DHT22;4963;51.444;6.528;2023-06-14T10:24:59;25.20;55.70
9849;DHT22;4963;51.444;6.528;2023-06-14T10:27:30;25.00;55.80
9849;DHT22;4963;51.444;6.528;2023-06-14T10:30:07;24.80;55.60
9849;DHT22;4963;51.444;6.528;2023-06-14T10:32:34;24.70;55.30
9849;DHT22;4963;51.444;6.528;2023-06-14T10:35:05;24.80;55.10
9849;DHT22;4963;51.444;6.528;2023-06-14T10:37:32;24.90;55.10
9849;DHT22;4963;51.444;6.528;2023-06-14T10:39:59;24.90;55.50
9849;DHT22;4963;51.444;6.528;2023-06-14T10:42:32;24.80;55.20
9849;DHT22;4963;51.444;6.528;2023-06-14T10:44:59;24.80;54.90
9849;DHT22;4963;51.444;6.528;2023-06-14T10:47:29;25.00;55.00
9849;DHT22;4963;51.444;6.528;2023-06-14T10:50:03;25.10;55.00
9849;DHT22;4963;51.444;6.528;2023-06-14T10:52:33;25.10;53.50
9849;DHT22;4963;51.444;6.528;2023-06-14T10:55:08;24.90;53.30
9849;DHT22;4963;51.444;6.528;2023-06-14T10:57:37;24.90;53.80
9849;DHT22;4963;51.444;6.528;2023-06-14T11:00:05;25.10;54.20
9849;DHT22;4963;51.444;6.528;2023-06-14T11:03:11;25.30;55.00
9849;DHT22;4963;51.444;6.528;2023-06-14T11:05:49;25.40;53.10
9849;DHT22;4963;51.444;6.528;2023-06-14T11:09:00;25.40;53.50
9849;DHT22;4963;51.444;6.528;2023-06-14T11:11:33;25.30;54.30
9849;DHT22;4963;51.444;6.528;2023-06-14T11:14:00;25.00;53.50
9849;DHT22;4963;51.444;6.528;2023-06-14T11:16:28;24.80;53.00
9849;DHT22;4963;51.444;6.528;2023-06-14T11:18:56;24.80;52.90
9849;DHT22;4963;51.444;6.528;2023-06-14T11:21:24;24.60;53.50
9849;DHT22;4963;51.444;6.528;2023-06-14T11:23:56;24.70;53.60
9849;DHT22;4963;51.444;6.528;2023-06-14T11:26:27;24.90;53.80
9849;DHT22;4963;51.444;6.528;2023-06-14T11:28:57;25.00;53.30
9849;DHT22;4963;51.444;6.528;2023-06-14T11:31:25;25.20;53.30
9849;DHT22;4963;51.444;6.528;2023-06-14T11:33:53;25.20;53.00
9849;DHT22;4963;51.444;6.528;2023-06-14T11:36:22;25.20;52.70
9849;DHT22;4963;51.444;6.528;2023-06-14T11:38:48;25.30;53.50
9849;DHT22;4963;51.444;6.528;2023-06-14T11:41:15;25.30;52.70
9849;DHT22;4963;51.444;6.528;2023-06-14T11:43:42;25.30;52.80
9849;DHT22;4963;51.444;6.528;2023-06-14T11:46:13;25.40;53.40
9849;DHT22;4963;51.444;6.528;2023-06-14T11:48:41;25.30;52.60
9849;DHT22;4963;51.444;6.528;2023-06-14T11:51:09;25.30;53.20
9849;DHT22;4963;51.444;6.528;2023-06-14T11:53:38;25.30;52.80
9849;DHT22;4963;51.444;6.528;2023-06-14T11:56:05;25.30;53.10
9849;DHT22;4963;51.444;6.528;2023-06-14T11:58:32;25.30;53.60
9849;DHT22;4963;51.444;6.528;2023-06-14T12:00:59;25.40;53.90
9849;DHT22;4963;51.444;6.528;2023-06-14T12:03:28;25.50;53.40
9849;DHT22;4963;51.444;6.528;2023-06-14T12:06:03;25.60;54.00
9849;DHT22;4963;51.444;6.528;2023-06-14T12:08:34;25.60;52.10
9849;DHT22;4963;51.444;6.528;2023-06-14T12:11:07;25.40;52.40
9849;DHT22;4963;51.444;6.528;2023-06-14T12:13:38;25.30;51.60
9849;DHT22;4963;51.444;6.528;2023-06-14T12:16:07;25.30;52.50
9849;DHT22;4963;51.444;6.528;2023-06-14T12:18:34;25.30;50.90
9849;DHT22;4963;51.444;6.528;2023-06-14T12:21:03;25.30;50.90
9849;DHT22;4963;51.444;6.528;2023-06-14T12:23:45;25.30;50.40
9849;DHT22;4963;51.444;6.528;2023-06-14T12:26:17;25.40;51.20
9849;DHT22;4963;51.444;6.528;2023-06-14T12:28:45;25.50;52.10
9849;DHT22;4963;51.444;6.528;2023-06-14T12:31:13;25.50;51.80
9849;DHT22;4963;51.444;6.528;2023-06-14T12:33:41;25.50;52.40
9849;DHT22;4963;51.444;6.528;2023-06-14T12:36:09;25.40;52.30
9849;DHT22;4963;51.444;6.528;2023-06-14T12:38:37;25.40;51.50
9849;DHT22;4963;51.444;6.528;2023-06-14T12:41:04;25.30;51.30
9849;DHT22;4963;51.444;6.528;2023-06-14T12:43:32;25.40;52.20
9849;DHT22;4963;51.444;6.528;2023-06-14T12:45:59;25.40;52.60
9849;DHT22;4963;51.444;6.528;2023-06-14T12:48:26;25.60;52.20
9849;DHT22;4963;51.444;6.528;2023-06-14T12:50:55;25.60;51.70
9849;DHT22;4963;51.444;6.528;2023-06-14T12:53:22;25.70;52.00
9849;DHT22;4963;51.444;6.528;2023-06-14T12:55:49;25.80;52.00
9849;DHT22;4963;51.444;6.528;2023-06-14T12:58:16;25.80;52.80
9849;DHT22;4963;51.444;6.528;2023-06-14T13:00:46;26.00;52.00
9849;DHT22;4963;51.444;6.528;2023-06-14T13:03:13;26.10;51.10
9849;DHT22;4963;51.444;6.528;2023-06-14T13:05:40;25.90;51.40
9849;DHT22;4963;51.444;6.528;2023-06-14T13:08:08;25.80;52.70
9849;DHT22;4963;51.444;6.528;2023-06-14T13:10:36;25.60;52.50
9849;DHT22;4963;51.444;6.528;2023-06-14T13:13:03;25.40;53.40
9849;DHT22;4963;51.444;6.528;2023-06-14T13:15:30;25.40;52.40
9849;DHT22;4963;51.444;6.528;2023-06-14T13:17:58;25.30;53.20
9849;DHT22;4963;51.444;6.528;2023-06-14T13:20:25;25.50;54.30
9849;DHT22;4963;51.444;6.528;2023-06-14T13:22:52;25.70;53.60
9849;DHT22;4963;51.444;6.528;2023-06-14T13:25:19;25.70;52.90
9849;DHT22;4963;51.444;6.528;2023-06-14T13:27:48;25.70;52.50
9849;DHT22;4963;51.444;6.528;2023-06-14T13:30:15;25.70;52.40
9849;DHT22;4963;51.444;6.528;2023-06-14T13:32:42;25.60;51.80
9849;DHT22;4963;51.444;6.528;2023-06-14T13:35:10;25.70;52.20
9849;DHT22;4963;51.444;6.528;2023-06-14T13:37:37;25.90;53.00
9849;DHT22;4963;51.444;6.528;2023-06-14T13:40:06;25.80;52.70
9849;DHT22;4963;51.444;6.528;2023-06-14T13:42:33;25.70;52.50
9849;DHT22;4963;51.444;6.528;2023-06-14T13:45:01;25.70;53.60
9849;DHT22;4963;51.444;6.528;2023-06-14T13:47:28;25.80;54.50
9849;DHT22;4963;51.444;6.528;2023-06-14T13:49:55;25.80;53.50
9849;DHT22;4963;51.444;6.528;2023-06-14T13:52:23;25.80;53.80
9849;DHT22;4963;51.444;6.528;2023-06-14T13:54:50;25.70;54.40
9849;DHT22;4963;51.444;6.528;2023-06-14T13:57:17;25.70;54.20
9849;DHT22;4963;51.444;6.528;2023-06-14T13:59:45;25.60;53.90
9849;DHT22;4963;51.444;6.528;2023-06-14T14:02:12;25.60;54.50
9849;DHT22;4963;51.444;6.528;2023-06-14T14:04:40;25.60;54.30
9849;DHT22;4963;51.444;6.528;2023-06-14T14:07:07;25.70;55.10
9849;DHT22;4963;51.444;6.528;2023-06-14T14:09:36;25.80;54.80
9849;DHT22;4963;51.444;6.528;2023-06-14T14:12:05;25.70;54.00
9849;DHT22;4963;51.444;6.528;2023-06-14T14:14:32;25.70;54.40
9849;DHT22;4963;51.444;6.528;2023-06-14T14:16:59;25.70;55.10
9849;DHT22;4963;51.444;6.528;2023-06-14T14:19:26;25.70;55.80
9849;DHT22;4963;51.444;6.528;2023-06-14T14:21:53;25.80;55.90
9849;DHT22;4963;51.444;6.528;2023-06-14T14:24:20;25.90;54.90
9849;DHT22;4963;51.444;6.528;2023-06-14T14:26:48;26.00;55.80
9849;DHT22;4963;51.444;6.528;2023-06-14T14:29:16;26.00;54.70
9849;DHT22;4963;51.444;6.528;2023-06-14T14:31:43;25.70;54.20
9849;DHT22;4963;51.444;6.528;2023-06-14T14:34:10;25.50;55.10
9849;DHT22;4963;51.444;6.528;2023-06-14T14:36:36;25.60;55.10
9849;DHT22;4963;51.444;6.528;2023-06-14T14:39:07;25.60;55.30
9849;DHT22;4963;51.444;6.528;2023-06-14T14:41:34;25.60;55.00
9849;DHT22;4963;51.444;6.528;2023-06-14T14:44:03;25.60;55.60
9849;DHT22;4963;51.444;6.528;2023-06-14T14:46:29;25.80;55.40
9849;DHT22;4963;51.444;6.528;2023-06-14T14:48:56;25.70;54.40
9849;DHT22;4963;51.444;6.528;2023-06-14T14:51:24;25.80;55.50
9849;DHT22;4963;51.444;6.528;2023-06-14T14:53:51;25.80;54.80
9849;DHT22;4963;51.444;6.528;2023-06-14T14:56:18;25.80;54.60
9849;DHT22;4963;51.444;6.528;2023-06-14T14:58:45;25.70;54.20
9849;DHT22;4963;51.444;6.528;2023-06-14T15:01:15;25.60;54.50
9849;DHT22;4963;51.444;6.528;2023-06-14T15:03:41;25.60;54.70
9849;DHT22;4963;51.444;6.528;2023-06-14T15:06:08;25.50;55.30
9849;DHT22;4963;51.444;6.528;2023-06-14T15:08:35;25.40;54.30
9849;DHT22;4963;51.444;6.528;2023-06-14T15:11:02;25.50;54.70
9849;DHT22;4963;51.444;6.528;2023-06-14T15:13:29;25.40;54.30
9849;DHT22;4963;51.444;6.528;2023-06-14T15:15:55;25.40;55.20
9849;DHT22;4963;51.444;6.528;2023-06-14T15:18:24;25.10;54.00
9849;DHT22;4963;51.444;6.528;2023-06-14T15:20:50;25.00;54.80
9849;DHT22;4963;51.444;6.528;2023-06-14T15:23:17;25.10;55.20
9849;DHT22;4963;51.444;6.528;2023-06-14T15:25:46;25.10;55.30
9849;DHT22;4963;51.444;6.528;2023-06-14T15:28:13;25.10;55.20
9849;DHT22;4963;51.444;6.528;2023-06-14T15:30:40;25.10;54.10
9849;DHT22;4963;51.444;6.528;2023-06-14T15:33:07;25.20;55.00
9849;DHT22;4963;51.444;6.528;2023-06-14T15:35:35;25.10;54.80
9849;DHT22;4963;51.444;6.528;2023-06-14T15:38:02;25.10;55.30
9849;DHT22;4963;51.444;6.528;2023-06-14T15:40:29;24.90;55.30
9849;DHT22;4963;51.444;6.528;2023-06-14T15:42:56;24.80;55.70
9849;DHT22;4963;51.444;6.528;2023-06-14T15:45:23;24.80;55.70
9849;DHT22;4963;51.444;6.528;2023-06-14T15:47:50;24.80;55.40
9849;DHT22;4963;51.444;6.528;2023-06-14T15:50:16;24.80;55.50
9849;DHT22;4963;51.444;6.528;2023-06-14T15:52:45;24.90;56.20
9849;DHT22;4963;51.444;6.528;2023-06-14T15:55:12;25.00;55.70
9849;DHT22;4963;51.444;6.528;2023-06-14T15:57:39;25.00;55.90
9849;DHT22;4963;51.444;6.528;2023-06-14T16:00:06;25.10;55.40
9849;DHT22;4963;51.444;6.528;2023-06-14T16:02:33;25.20;55.50
9849;DHT22;4963;51.444;6.528;2023-06-14T16:05:00;25.20;55.30
9849;DHT22;4963;51.444;6.528;2023-06-14T16:07:27;25.20;55.00